Currently 69°F in Perris, California, USA
69°F
69°F / 47°F
2 mph S
0.00"
Saturday, January 16, 2021 9:45 AM PST

Perris, California Weather Summary
Last 36 Hours

Temperature Winds Hourly Humidity Dewpoint
Time Report Norm Report Norm Max Gusts Precip. Rpt. Norm Rpt. Norm Pressure
1,2Sat 09:45 AM  69.1°F  55°F  2 mph S  2 mph  3 mph  0.00"  23%  60%  28°F  41°F  30.08"
Sat 09:00 AM  61.3°F  51°F  calm  2 mph  4 mph  0.00"  25%  65%  24°F  40°F  30.08"
Sat 08:00 AM  49.4°F  47°F  calm  1 mph  3 mph  0.00"  50%  69%  31°F  37°F  30.08"
3Sat 07:47 AM  47.2°F  46°F  calm  1 mph  none  ----  52%  70%  30°F  37°F  30.07"
Sat 07:00 AM  51.7°F  46°F  calm  1 mph  9 mph  0.00"  41%  70%  28°F  36°F  30.06"
Sat 06:00 AM  48.0°F  46°F  calm  1 mph  8 mph  0.00"  52%  69%  30°F  36°F  30.06"
Sat 05:00 AM  51.3°F  47°F  calm  1 mph  5 mph  0.00"  41%  67%  28°F  36°F  30.06"
Sat 04:00 AM  49.6°F  47°F  calm  1 mph  3 mph  0.00"  45%  67%  28°F  36°F  30.05"
Sat 03:00 AM  51.9°F  48°F  calm  1 mph  none  0.00"  41%  66%  28°F  36°F  30.06"
Sat 02:00 AM  54.4°F  49°F  calm  1 mph  none  0.00"  32%  63%  24°F  37°F  30.07"
Sat 01:00 AM  55.4°F  50°F  calm  1 mph  2 mph  0.00"  32%  62%  25°F  37°F  30.06"
Sat 12:00 AM  56.3°F  51°F  calm  1 mph  none  0.00"  32%  59%  25°F  37°F  30.06"
Fri 11:00 PM  61.3°F  52°F  calm  2 mph  7 mph  0.00"  26%  58%  24°F  37°F  30.06"
Fri 10:00 PM  63.3°F  54°F  calm  2 mph  4 mph  0.00"  24%  56%  24°F  38°F  30.08"
Fri 09:00 PM  67.2°F  55°F  calm  2 mph  9 mph  0.00"  17%  54%  18°F  38°F  30.08"
Fri 08:00 PM  68.8°F  57°F  2 mph E  2 mph  4 mph  0.00"  16%  51%  19°F  38°F  30.08"
Fri 07:00 PM  70.0°F  58°F  calm  2 mph  6 mph  0.00"  16%  49%  19°F  38°F  30.08"
Fri 06:00 PM  76.0°F  59°F  calm  3 mph  6 mph  0.00"  13%  46%  19°F  38°F  30.08"
Fri 05:00 PM  80.0°F  62°F  1 mph NE  3 mph  5 mph  0.00"  9%  42%  14°F  38°F  30.07"
Fri 04:00 PM  84.0°F  65°F  calm  4 mph  8 mph  0.00"  7%  39%  9°F  38°F  30.07"
Fri 03:00 PM  84.5°F  66°F  1 mph W  4 mph  9 mph  0.00"  6%  37%  9°F  38°F  30.10"
Fri 02:00 PM  84.6°F  66°F  calm  4 mph  9 mph  0.00"  6%  36%  9°F  38°F  30.11"
Fri 01:00 PM  83.3°F  66°F  1 mph N  4 mph  8 mph  0.00"  7%  38%  9°F  38°F  30.14"
Fri 12:00 PM  81.5°F  64°F  calm  3 mph  9 mph  0.00"  8%  42%  12°F  39°F  30.19"
Fri 11:00 AM  80.1°F  61°F  calm  3 mph  8 mph  0.00"  9%  48%  14°F  41°F  30.23"
Fri 10:00 AM  77.0°F  56°F  calm  2 mph  7 mph  0.00"  12%  58%  18°F  41°F  30.26"
Fri 09:00 AM  72.5°F  51°F  1 mph NE  2 mph  10 mph  0.00"  14%  66%  19°F  40°F  30.27"
Fri 08:00 AM  64.2°F  47°F  1 mph NE  1 mph  8 mph  0.00"  23%  70%  24°F  37°F  30.25"
Fri 07:00 AM  66.0°F  45°F  4 mph E  1 mph  9 mph  0.00"  20%  70%  22°F  36°F  30.24"
Fri 06:00 AM  63.9°F  46°F  1 mph E  1 mph  8 mph  0.00"  25%  70%  26°F  36°F  30.22"
Fri 05:00 AM  63.5°F  47°F  2 mph E  1 mph  6 mph  0.00"  20%  68%  21°F  36°F  30.21"
Fri 04:00 AM  61.4°F  47°F  calm  1 mph  5 mph  0.00"  24%  67%  23°F  36°F  30.21"
Fri 03:00 AM  61.4°F  48°F  calm  1 mph  6 mph  0.00"  25%  66%  24°F  36°F  30.21"
Fri 02:00 AM  62.2°F  49°F  calm  1 mph  8 mph  0.00"  23%  64%  23°F  37°F  30.23"
Fri 01:00 AM  65.5°F  50°F  calm  1 mph  9 mph  0.00"  18%  62%  19°F  37°F  30.22"
Fri 12:00 AM  65.8°F  51°F  calm  1 mph  11 mph  0.00"  21%  60%  23°F  37°F  30.23"
Thu 11:00 PM  61.1°F  52°F  calm  2 mph  7 mph  0.00"  23%  59%  21°F  38°F  30.23"
Thu 10:00 PM  63.0°F  53°F  calm  2 mph  5 mph  0.00"  22%  57%  22°F  38°F  30.22"

  1. Current weather data. No green row appears if the current weather data is also the high or low for the current day.
  2. High temperature for the current day.
  3. Low temperature for the current day.

The Perris, California weather pages are a service of WeatherCurrents. Perris is located in Southern California's Inland Empire, south of Riverside and north of Sun City, along the Interstate 215 freeway.
Copyright ©2021  WeatherCurrents. All rights reserved. - Submit questions and comments - Privacy Policy

This page automatically refreshes every 10 minutes.